createdAt,value
2017-03-16T00:00:06.161Z,927.08
2017-03-16T00:00:24.935Z,927.1
2017-03-16T00:00:44.205Z,927.13
2017-03-16T00:01:03.481Z,927.13
2017-03-16T00:01:22.785Z,927.15
2017-03-16T00:01:42.058Z,927.13
2017-03-16T00:02:01.398Z,927.14
2017-03-16T00:02:20.702Z,927.14
2017-03-16T00:02:38.945Z,927.13
2017-03-16T00:02:57.706Z,927.16
2017-03-16T00:03:16.991Z,927.17
2017-03-16T00:03:34.757Z,927.19
2017-03-16T00:03:53.537Z,927.24
2017-03-16T00:04:12.298Z,927.2
2017-03-16T00:04:31.095Z,927.24
2017-03-16T00:04:50.396Z,927.2
2017-03-16T00:05:23.669Z,927.21
2017-03-16T00:05:42.465Z,927.2
2017-03-16T00:06:01.777Z,927.24
2017-03-16T00:06:20.568Z,927.23
2017-03-16T00:06:39.338Z,927.22
2017-03-16T00:06:58.117Z,927.27
2017-03-16T00:07:17.092Z,927.22
2017-03-16T00:07:35.875Z,927.25
2017-03-16T00:07:55.187Z,927.28
2017-03-16T00:08:13.994Z,927.31
2017-03-16T00:08:33.276Z,927.3
2017-03-16T00:08:52.552Z,927.3
2017-03-16T00:09:11.833Z,927.29
2017-03-16T00:09:31.085Z,927.28
2017-03-16T00:09:49.862Z,927.29
2017-03-16T00:10:09.148Z,927.27
2017-03-16T00:10:27.903Z,927.24
2017-03-16T00:10:47.190Z,927.29
2017-03-16T00:11:06.482Z,927.29
2017-03-16T00:11:24.745Z,927.27
2017-03-16T00:11:44.054Z,927.28
2017-03-16T00:12:03.329Z,927.28
2017-03-16T00:12:22.133Z,927.3
2017-03-16T00:12:41.421Z,927.29
2017-03-16T00:13:00.706Z,927.31
2017-03-16T00:13:19.490Z,927.29
2017-03-16T00:13:38.767Z,927.3
2017-03-16T00:13:57.013Z,927.33
2017-03-16T00:14:16.300Z,927.31
2017-03-16T00:14:35.084Z,927.3
2017-03-16T00:14:54.394Z,927.33
2017-03-16T00:15:13.725Z,927.28
2017-03-16T00:15:32.541Z,927.28
2017-03-16T00:15:51.307Z,927.3
2017-03-16T00:16:10.586Z,927.29
2017-03-16T00:16:29.865Z,927.3
2017-03-16T00:16:49.162Z,927.28
2017-03-16T00:17:08.454Z,927.3
2017-03-16T00:17:27.727Z,927.31
2017-03-16T00:17:47.042Z,927.3
2017-03-16T00:18:05.791Z,927.31
2017-03-16T00:18:24.567Z,927.33
2017-03-16T00:18:43.853Z,927.35
2017-03-16T00:19:03.148Z,927.36
2017-03-16T00:19:22.456Z,927.32
2017-03-16T00:19:41.218Z,927.36
2017-03-16T00:20:00.530Z,927.37
2017-03-16T00:20:19.825Z,927.41
2017-03-16T00:20:38.602Z,927.38
2017-03-16T00:20:57.896Z,927.39
2017-03-16T00:21:17.246Z,927.34
2017-03-16T00:21:36.536Z,927.35
2017-03-16T00:21:55.339Z,927.39
2017-03-16T00:22:14.624Z,927.42
2017-03-16T00:22:32.902Z,927.41
2017-03-16T00:22:52.163Z,927.39
2017-03-16T00:23:11.453Z,927.44
2017-03-16T00:23:30.747Z,927.37
2017-03-16T00:23:49.534Z,927.41
2017-03-16T00:24:08.835Z,927.42
2017-03-16T00:24:27.615Z,927.38
2017-03-16T00:24:46.899Z,927.39
2017-03-16T00:25:06.179Z,927.43
2017-03-16T00:25:25.480Z,927.4
2017-03-16T00:25:44.798Z,927.38
2017-03-16T00:26:03.568Z,927.4
2017-03-16T00:26:22.868Z,927.43
2017-03-16T00:26:42.160Z,927.4
2017-03-16T00:27:01.486Z,927.4
2017-03-16T00:27:20.824Z,927.38
2017-03-16T00:27:40.123Z,927.38
2017-03-16T00:27:58.916Z,927.42
2017-03-16T00:28:18.218Z,927.42
2017-03-16T00:28:36.996Z,927.36
2017-03-16T00:28:56.272Z,927.36
2017-03-16T00:29:15.567Z,927.4
2017-03-16T00:29:34.320Z,927.41
2017-03-16T00:29:53.090Z,927.38
2017-03-16T00:30:12.376Z,927.42
2017-03-16T00:30:31.682Z,927.38
2017-03-16T00:30:50.992Z,927.38
2017-03-16T00:31:10.280Z,927.38
2017-03-16T00:31:29.565Z,927.42
2017-03-16T00:31:48.346Z,927.42
2017-03-16T00:32:07.644Z,927.44
2017-03-16T00:32:26.941Z,927.44
2017-03-16T00:32:45.691Z,927.45
2017-03-16T00:33:04.982Z,927.42
2017-03-16T00:33:24.277Z,927.46
2017-03-16T00:33:43.573Z,927.44
2017-03-16T00:34:02.868Z,927.41
2017-03-16T00:34:22.168Z,927.47
2017-03-16T00:34:41.478Z,927.46
2017-03-16T00:35:00.771Z,927.48
2017-03-16T00:35:19.565Z,927.47
2017-03-16T00:35:38.870Z,927.49
2017-03-16T00:35:58.177Z,927.48
2017-03-16T00:36:17.472Z,927.5
2017-03-16T00:36:36.787Z,927.49
2017-03-16T00:36:56.075Z,927.47
2017-03-16T00:37:15.509Z,927.51
2017-03-16T00:37:34.799Z,927.51
2017-03-16T00:37:53.068Z,927.57
2017-03-16T00:38:12.370Z,927.57
2017-03-16T00:38:31.679Z,927.53
2017-03-16T00:38:50.971Z,927.53
2017-03-16T00:39:10.252Z,927.59
2017-03-16T00:39:29.023Z,927.57
2017-03-16T00:39:46.775Z,927.57
2017-03-16T00:40:06.073Z,927.56
2017-03-16T00:40:25.346Z,927.57
2017-03-16T00:40:44.153Z,927.56
2017-03-16T00:41:03.412Z,927.59
2017-03-16T00:41:22.721Z,927.6
2017-03-16T00:41:42.007Z,927.61
2017-03-16T00:42:01.348Z,927.6
2017-03-16T00:42:20.626Z,927.61
2017-03-16T00:42:39.930Z,927.61
2017-03-16T00:42:59.223Z,927.61
2017-03-16T00:43:18.593Z,927.6
2017-03-16T00:43:37.379Z,927.63
2017-03-16T00:43:56.650Z,927.6
2017-03-16T00:44:15.927Z,927.63
2017-03-16T00:44:35.188Z,927.63
2017-03-16T00:44:53.947Z,927.61
2017-03-16T00:45:12.744Z,927.6
2017-03-16T00:45:31.536Z,927.59
2017-03-16T00:45:50.824Z,927.61
2017-03-16T00:46:09.580Z,927.63
2017-03-16T00:46:28.879Z,927.61
2017-03-16T00:46:47.670Z,927.6
2017-03-16T00:47:06.510Z,927.62
2017-03-16T00:47:25.820Z,927.64
2017-03-16T00:47:44.594Z,927.63
2017-03-16T00:48:03.866Z,927.62
2017-03-16T00:48:22.134Z,927.6
2017-03-16T00:48:41.440Z,927.64
2017-03-16T00:49:00.741Z,927.64
2017-03-16T00:49:20.058Z,927.62
2017-03-16T00:49:39.361Z,927.63
2017-03-16T00:49:58.136Z,927.64
2017-03-16T00:50:17.430Z,927.62
2017-03-16T00:50:36.842Z,927.63
2017-03-16T00:50:56.138Z,927.65
2017-03-16T00:51:15.436Z,927.65
2017-03-16T00:51:34.755Z,927.65
2017-03-16T00:51:54.010Z,927.65
2017-03-16T00:52:12.796Z,927.65
2017-03-16T00:52:31.676Z,927.65
2017-03-16T00:52:50.982Z,927.67
2017-03-16T00:53:09.740Z,927.63
2017-03-16T00:53:29.052Z,927.65
2017-03-16T00:53:47.825Z,927.65
2017-03-16T00:54:07.121Z,927.64
2017-03-16T00:54:26.425Z,927.66
2017-03-16T00:54:45.705Z,927.63
2017-03-16T00:55:05.008Z,927.64
2017-03-16T00:55:23.799Z,927.65
2017-03-16T00:55:43.101Z,927.63
2017-03-16T00:56:02.389Z,927.65
2017-03-16T00:56:21.664Z,927.59
2017-03-16T00:56:40.970Z,927.63
2017-03-16T00:57:00.274Z,927.63
2017-03-16T00:57:19.050Z,927.61
2017-03-16T00:57:37.828Z,927.61
2017-03-16T00:57:57.125Z,927.64
2017-03-16T00:58:16.446Z,927.65
2017-03-16T00:58:34.729Z,927.68
2017-03-16T00:58:54.057Z,927.66
2017-03-16T00:59:13.375Z,927.64
2017-03-16T00:59:32.717Z,927.65
2017-03-16T00:59:51.485Z,927.66
2017-03-16T01:00:10.800Z,927.65
2017-03-16T01:00:29.588Z,927.68
2017-03-16T01:00:48.872Z,927.66
2017-03-16T01:01:07.662Z,927.66
2017-03-16T01:01:26.481Z,927.64
2017-03-16T01:01:45.770Z,927.7
2017-03-16T01:02:05.085Z,927.65
2017-03-16T01:02:24.404Z,927.67
2017-03-16T01:02:43.716Z,927.65
2017-03-16T01:03:03.004Z,927.65
2017-03-16T01:03:21.841Z,927.66
2017-03-16T01:03:41.126Z,927.67
2017-03-16T01:04:00.413Z,927.63
2017-03-16T01:04:19.709Z,927.68
2017-03-16T01:04:39.022Z,927.63
2017-03-16T01:04:58.325Z,927.67
2017-03-16T01:05:17.089Z,927.65
2017-03-16T01:05:36.420Z,927.66
2017-03-16T01:05:55.728Z,927.66
2017-03-16T01:06:15.023Z,927.66
2017-03-16T01:06:33.292Z,927.66
2017-03-16T01:06:52.605Z,927.63
2017-03-16T01:07:10.896Z,927.61
2017-03-16T01:07:30.184Z,927.62
2017-03-16T01:07:49.485Z,927.62
2017-03-16T01:08:08.237Z,927.62
2017-03-16T01:08:27.528Z,927.59
2017-03-16T01:08:46.832Z,927.6
2017-03-16T01:09:06.134Z,927.62
2017-03-16T01:09:25.434Z,927.58
2017-03-16T01:09:44.203Z,927.58
2017-03-16T01:10:02.443Z,927.58
2017-03-16T01:10:21.247Z,927.58
2017-03-16T01:10:40.566Z,927.58
2017-03-16T01:10:59.383Z,927.58
2017-03-16T01:11:18.189Z,927.57
2017-03-16T01:11:37.494Z,927.57
2017-03-16T01:11:56.757Z,927.57
2017-03-16T01:12:15.109Z,927.55
2017-03-16T01:12:34.380Z,927.56
2017-03-16T01:12:53.672Z,927.57
2017-03-16T01:13:12.990Z,927.55
2017-03-16T01:13:32.273Z,927.6
2017-03-16T01:13:50.523Z,927.57
2017-03-16T01:14:09.814Z,927.57
2017-03-16T01:14:29.100Z,927.59
2017-03-16T01:14:47.384Z,927.6
2017-03-16T01:15:06.680Z,927.61
2017-03-16T01:15:25.980Z,927.6
2017-03-16T01:15:44.758Z,927.63
2017-03-16T01:16:04.036Z,927.59
2017-03-16T01:16:23.333Z,927.63
2017-03-16T01:16:42.117Z,927.67
2017-03-16T01:17:01.388Z,927.62
2017-03-16T01:17:20.667Z,927.66
2017-03-16T01:17:39.957Z,927.65
2017-03-16T01:17:59.231Z,927.65
2017-03-16T01:18:18.557Z,927.7
2017-03-16T01:18:37.325Z,927.64
2017-03-16T01:18:56.607Z,927.65
2017-03-16T01:19:15.916Z,927.66
2017-03-16T01:19:35.250Z,927.64
2017-03-16T01:19:54.544Z,927.67
2017-03-16T01:20:13.852Z,927.66
2017-03-16T01:20:32.624Z,927.68
2017-03-16T01:20:51.409Z,927.63
2017-03-16T01:21:10.703Z,927.64
2017-03-16T01:21:29.976Z,927.65
2017-03-16T01:21:49.294Z,927.67
2017-03-16T01:22:08.582Z,927.66
2017-03-16T01:22:27.353Z,927.65
2017-03-16T01:22:46.116Z,927.63
2017-03-16T01:23:05.435Z,927.66
2017-03-16T01:23:24.732Z,927.64
2017-03-16T01:23:44.051Z,927.62
2017-03-16T01:24:03.365Z,927.67
2017-03-16T01:24:22.117Z,927.66
2017-03-16T01:24:41.389Z,927.61
2017-03-16T01:25:00.187Z,927.58
2017-03-16T01:25:18.498Z,927.61
2017-03-16T01:25:37.289Z,927.65
2017-03-16T01:25:56.057Z,927.61
2017-03-16T01:26:15.330Z,927.6
2017-03-16T01:26:34.688Z,927.61
2017-03-16T01:26:54.013Z,927.6
2017-03-16T01:27:12.807Z,927.62
2017-03-16T01:27:32.111Z,927.62
2017-03-16T01:27:51.396Z,927.63
2017-03-16T01:28:10.187Z,927.66
2017-03-16T01:28:29.497Z,927.63
2017-03-16T01:28:48.774Z,927.61
2017-03-16T01:29:07.526Z,927.61
2017-03-16T01:29:26.810Z,927.6
2017-03-16T01:29:46.129Z,927.65
2017-03-16T01:30:05.403Z,927.56
2017-03-16T01:30:24.709Z,927.61
2017-03-16T01:30:43.974Z,927.62
2017-03-16T01:31:02.762Z,927.6
2017-03-16T01:31:21.519Z,927.61
2017-03-16T01:31:40.809Z,927.59
2017-03-16T01:31:59.619Z,927.55
2017-03-16T01:32:18.924Z,927.56
2017-03-16T01:32:37.712Z,927.61
2017-03-16T01:32:56.990Z,927.56
2017-03-16T01:33:16.271Z,927.61
2017-03-16T01:33:35.602Z,927.62
2017-03-16T01:33:54.387Z,927.56
2017-03-16T01:34:13.708Z,927.58
2017-03-16T01:34:33.014Z,927.54
2017-03-16T01:34:52.337Z,927.55
2017-03-16T01:35:11.652Z,927.56
2017-03-16T01:35:30.419Z,927.54
2017-03-16T01:35:49.699Z,927.55
2017-03-16T01:36:08.974Z,927.53
2017-03-16T01:36:28.243Z,927.53
2017-03-16T01:36:47.524Z,927.55
2017-03-16T01:37:06.812Z,927.55
2017-03-16T01:37:26.120Z,927.52
2017-03-16T01:37:45.434Z,927.53
2017-03-16T01:38:04.723Z,927.51
2017-03-16T01:38:24.019Z,927.48
2017-03-16T01:38:43.344Z,927.52
2017-03-16T01:39:02.657Z,927.49
2017-03-16T01:39:21.953Z,927.54
2017-03-16T01:39:40.740Z,927.5
2017-03-16T01:40:00.052Z,927.51
2017-03-16T01:40:18.808Z,927.49
2017-03-16T01:40:38.072Z,927.53
2017-03-16T01:40:57.362Z,927.49
2017-03-16T01:41:16.655Z,927.49
2017-03-16T01:41:35.926Z,927.5
2017-03-16T01:41:54.705Z,927.5
2017-03-16T01:42:14.259Z,927.48
2017-03-16T01:42:33.538Z,927.48
2017-03-16T01:42:52.814Z,927.48
2017-03-16T01:43:12.111Z,927.47
2017-03-16T01:43:31.413Z,927.48
2017-03-16T01:43:50.730Z,927.52
2017-03-16T01:44:10.042Z,927.51
2017-03-16T01:44:28.291Z,927.53
2017-03-16T01:44:47.584Z,927.51
2017-03-16T01:45:06.370Z,927.54
2017-03-16T01:45:25.156Z,927.53
2017-03-16T01:45:43.959Z,927.53
2017-03-16T01:46:03.251Z,927.47
2017-03-16T01:46:22.026Z,927.48
2017-03-16T01:46:41.333Z,927.5
2017-03-16T01:46:59.571Z,927.45
2017-03-16T01:47:18.880Z,927.49
2017-03-16T01:47:38.174Z,927.5
2017-03-16T01:47:57.469Z,927.48
2017-03-16T01:48:16.771Z,927.53
2017-03-16T01:48:36.060Z,927.51
2017-03-16T01:48:55.350Z,927.49
2017-03-16T01:49:14.638Z,927.51
2017-03-16T01:49:33.922Z,927.55
2017-03-16T01:49:53.237Z,927.53
2017-03-16T01:50:12.230Z,927.54
2017-03-16T01:50:31.490Z,927.44
2017-03-16T01:50:50.769Z,927.5
2017-03-16T01:51:09.535Z,927.49
2017-03-16T01:51:28.844Z,927.49
2017-03-16T01:51:48.169Z,927.52
2017-03-16T01:52:07.472Z,927.51
2017-03-16T01:52:26.278Z,927.5
2017-03-16T01:52:45.575Z,927.51
2017-03-16T01:53:04.834Z,927.48
2017-03-16T01:53:24.147Z,927.52
2017-03-16T01:53:43.446Z,927.5
2017-03-16T01:54:03.270Z,927.48
2017-03-16T01:54:22.041Z,927.45
2017-03-16T01:54:41.326Z,927.45
2017-03-16T01:55:00.599Z,927.47
2017-03-16T01:55:19.377Z,927.45
2017-03-16T01:55:38.677Z,927.52
2017-03-16T01:55:57.952Z,927.47
2017-03-16T01:56:16.739Z,927.47
2017-03-16T01:56:35.526Z,927.51
2017-03-16T01:56:54.294Z,927.45
2017-03-16T01:57:13.757Z,927.48
2017-03-16T01:57:32.020Z,927.48
2017-03-16T01:57:51.308Z,927.45
2017-03-16T01:58:10.587Z,927.44
2017-03-16T01:58:29.892Z,927.46
2017-03-16T01:58:48.667Z,927.46
2017-03-16T01:59:07.992Z,927.44
2017-03-16T01:59:27.305Z,927.49
2017-03-16T01:59:46.607Z,927.47
2017-03-16T02:00:05.400Z,927.46
2017-03-16T02:00:24.675Z,927.43
2017-03-16T02:00:43.504Z,927.43
2017-03-16T02:01:02.771Z,927.43
2017-03-16T02:01:22.084Z,927.46
2017-03-16T02:01:40.371Z,927.44
2017-03-16T02:01:59.147Z,927.41
2017-03-16T02:02:18.435Z,927.45
2017-03-16T02:02:37.726Z,927.42
2017-03-16T02:02:57.009Z,927.43
2017-03-16T02:03:15.811Z,927.44
2017-03-16T02:03:34.584Z,927.45
2017-03-16T02:03:53.361Z,927.41
2017-03-16T02:04:12.133Z,927.39
2017-03-16T02:04:31.429Z,927.4
2017-03-16T02:04:50.201Z,927.42
2017-03-16T02:05:09.515Z,927.45
2017-03-16T02:05:28.293Z,927.46
2017-03-16T02:05:47.579Z,927.41
2017-03-16T02:06:06.889Z,927.46
2017-03-16T02:06:26.160Z,927.44
2017-03-16T02:06:45.413Z,927.46
2017-03-16T02:07:04.731Z,927.43
2017-03-16T02:07:23.522Z,927.42
2017-03-16T02:07:42.785Z,927.42
2017-03-16T02:08:01.572Z,927.41
2017-03-16T02:08:20.899Z,927.41
2017-03-16T02:08:39.663Z,927.42
2017-03-16T02:08:58.433Z,927.4
2017-03-16T02:09:17.216Z,927.41
2017-03-16T02:09:36.499Z,927.38
2017-03-16T02:09:55.768Z,927.41
2017-03-16T02:10:15.078Z,927.39
2017-03-16T02:10:34.359Z,927.4
2017-03-16T02:10:53.167Z,927.37
2017-03-16T02:11:12.476Z,927.34
2017-03-16T02:11:31.241Z,927.34
2017-03-16T02:11:50.000Z,927.33
2017-03-16T02:12:09.263Z,927.35
2017-03-16T02:12:28.038Z,927.34
2017-03-16T02:12:47.334Z,927.35
2017-03-16T02:13:06.648Z,927.33
2017-03-16T02:13:25.438Z,927.31
2017-03-16T02:13:44.207Z,927.34
2017-03-16T02:14:03.501Z,927.29
2017-03-16T02:14:21.743Z,927.28
2017-03-16T02:14:41.060Z,927.26
2017-03-16T02:15:00.391Z,927.26
2017-03-16T02:15:19.199Z,927.25
2017-03-16T02:15:38.504Z,927.24
2017-03-16T02:15:57.811Z,927.28
2017-03-16T02:16:16.584Z,927.25
2017-03-16T02:16:35.906Z,927.24
2017-03-16T02:16:54.719Z,927.22
2017-03-16T02:17:14.004Z,927.18
2017-03-16T02:17:33.311Z,927.21
2017-03-16T02:17:52.618Z,927.21
2017-03-16T02:18:11.915Z,927.2
2017-03-16T02:18:31.225Z,927.17
2017-03-16T02:18:50.548Z,927.19
2017-03-16T02:19:09.836Z,927.18
2017-03-16T02:19:28.627Z,927.17
2017-03-16T02:19:47.923Z,927.16
2017-03-16T02:20:06.190Z,927.16
2017-03-16T02:20:25.503Z,927.15
2017-03-16T02:20:44.831Z,927.17
2017-03-16T02:21:04.101Z,927.15
2017-03-16T02:21:22.873Z,927.19
2017-03-16T02:21:42.175Z,927.17
2017-03-16T02:22:01.470Z,927.12
2017-03-16T02:22:20.852Z,927.15
2017-03-16T02:22:39.622Z,927.18
2017-03-16T02:22:58.911Z,927.13
2017-03-16T02:23:17.723Z,927.13
2017-03-16T02:23:37.020Z,927.16
2017-03-16T02:23:56.328Z,927.18
2017-03-16T02:24:15.109Z,927.17
2017-03-16T02:24:33.346Z,927.2
2017-03-16T02:24:52.628Z,927.19
2017-03-16T02:25:11.908Z,927.14
2017-03-16T02:25:31.191Z,927.17
2017-03-16T02:25:49.940Z,927.18
2017-03-16T02:26:09.229Z,927.18
2017-03-16T02:26:28.546Z,927.18
2017-03-16T02:26:47.850Z,927.18
2017-03-16T02:27:07.130Z,927.2
2017-03-16T02:27:26.430Z,927.21
2017-03-16T02:27:45.744Z,927.17
2017-03-16T02:28:05.647Z,927.18
2017-03-16T02:28:24.974Z,927.19
2017-03-16T02:28:43.751Z,927.2
2017-03-16T02:29:03.020Z,927.16
2017-03-16T02:29:21.794Z,927.2
2017-03-16T02:29:41.086Z,927.2
2017-03-16T02:30:00.400Z,927.2
2017-03-16T02:30:19.683Z,927.17
2017-03-16T02:30:38.458Z,927.17
2017-03-16T02:30:57.737Z,927.17
2017-03-16T02:31:17.060Z,927.16
2017-03-16T02:31:35.832Z,927.13
2017-03-16T02:31:55.152Z,927.19
2017-03-16T02:32:14.540Z,927.14
2017-03-16T02:32:33.830Z,927.17
2017-03-16T02:32:53.135Z,927.13
2017-03-16T02:33:12.415Z,927.16
2017-03-16T02:33:31.700Z,927.13
2017-03-16T02:33:49.964Z,927.12
2017-03-16T02:34:09.270Z,927.13
2017-03-16T02:34:28.576Z,927.13
2017-03-16T02:34:47.377Z,927.18
2017-03-16T02:35:06.644Z,927.18
2017-03-16T02:35:25.939Z,927.16
2017-03-16T02:35:44.737Z,927.18
2017-03-16T02:36:04.027Z,927.15
2017-03-16T02:36:22.884Z,927.14
2017-03-16T02:36:41.666Z,927.17
2017-03-16T02:37:00.947Z,927.17
2017-03-16T02:37:19.731Z,927.16
2017-03-16T02:37:38.995Z,927.15
2017-03-16T02:37:58.295Z,927.17
2017-03-16T02:38:17.610Z,927.16
2017-03-16T02:38:36.396Z,927.11
2017-03-16T02:38:55.751Z,927.11
2017-03-16T02:39:15.033Z,927.13
2017-03-16T02:39:34.351Z,927.14
2017-03-16T02:39:54.097Z,927.13
2017-03-16T02:40:13.385Z,927.16
2017-03-16T02:40:32.165Z,927.13
2017-03-16T02:40:51.457Z,927.12
2017-03-16T02:41:10.747Z,927.12
2017-03-16T02:41:30.087Z,927.12
2017-03-16T02:41:49.389Z,927.14
2017-03-16T02:42:08.707Z,927.12
2017-03-16T02:42:28.006Z,927.11
2017-03-16T02:42:47.291Z,927.16
2017-03-16T02:43:06.074Z,927.17
2017-03-16T02:43:24.904Z,927.13
2017-03-16T02:43:44.218Z,927.17
2017-03-16T02:44:03.537Z,927.21
2017-03-16T02:44:22.821Z,927.18
2017-03-16T02:44:42.110Z,927.18
2017-03-16T02:45:00.888Z,927.18
2017-03-16T02:45:19.665Z,927.13
2017-03-16T02:45:38.959Z,927.13
2017-03-16T02:45:57.226Z,927.17
2017-03-16T02:46:16.525Z,927.13
2017-03-16T02:46:35.825Z,927.18
2017-03-16T02:46:54.094Z,927.13
2017-03-16T02:47:13.172Z,927.14
2017-03-16T02:47:31.952Z,927.14
2017-03-16T02:47:50.755Z,927.15
2017-03-16T02:48:10.054Z,927.12
2017-03-16T02:48:29.370Z,927.11
2017-03-16T02:48:48.154Z,927.1
2017-03-16T02:49:07.473Z,927.11
2017-03-16T02:49:25.736Z,927.1
2017-03-16T02:49:44.512Z,927.1
2017-03-16T02:50:02.808Z,927.15
2017-03-16T02:50:22.144Z,927.09
2017-03-16T02:50:41.438Z,927.11
2017-03-16T02:51:00.724Z,927.13
2017-03-16T02:51:19.512Z,927.12
2017-03-16T02:51:38.337Z,927.08
2017-03-16T02:51:57.623Z,927.07
2017-03-16T02:52:16.508Z,927.08
2017-03-16T02:52:35.786Z,927.09
2017-03-16T02:52:55.106Z,927.1
2017-03-16T02:53:13.898Z,927.06
2017-03-16T02:53:32.672Z,927.07
2017-03-16T02:53:51.979Z,927.11
2017-03-16T02:54:10.785Z,927.09
2017-03-16T02:54:29.059Z,927.06
2017-03-16T02:54:48.371Z,927.1
2017-03-16T02:55:07.688Z,927.07
2017-03-16T02:55:26.985Z,927.09
2017-03-16T02:55:46.232Z,927.07
2017-03-16T02:56:05.544Z,927.1
2017-03-16T02:56:24.856Z,927.07
2017-03-16T02:56:44.146Z,927.07
2017-03-16T02:57:03.442Z,927.05
2017-03-16T02:57:21.720Z,927.04
2017-03-16T02:57:41.017Z,927.04
2017-03-16T02:58:00.342Z,927.03
2017-03-16T02:58:19.111Z,927.07
2017-03-16T02:58:38.396Z,927.01
2017-03-16T02:58:57.713Z,927.02
2017-03-16T02:59:16.492Z,927.07
2017-03-16T02:59:35.269Z,927.08
2017-03-16T02:59:54.537Z,927.03
2017-03-16T03:00:13.323Z,927.07
2017-03-16T03:00:32.629Z,927.05
2017-03-16T03:00:51.416Z,927.05
2017-03-16T03:01:10.703Z,927.02
2017-03-16T03:01:30.021Z,927.02
2017-03-16T03:01:49.306Z,927.06
2017-03-16T03:02:08.092Z,927.05
2017-03-16T03:02:27.371Z,927.02
2017-03-16T03:02:46.667Z,927.06
2017-03-16T03:03:05.458Z,927.04
2017-03-16T03:03:24.756Z,927.03
2017-03-16T03:03:44.051Z,927.06
2017-03-16T03:04:03.360Z,927
2017-03-16T03:04:22.151Z,927.03
2017-03-16T03:04:41.434Z,927
2017-03-16T03:05:00.737Z,926.97
2017-03-16T03:05:19.493Z,927.01
2017-03-16T03:05:38.771Z,927.01
2017-03-16T03:05:58.057Z,927.02
2017-03-16T03:06:16.841Z,927.04
2017-03-16T03:06:35.616Z,927.04
2017-03-16T03:06:54.909Z,927.01
2017-03-16T03:07:13.165Z,927.02
2017-03-16T03:07:32.456Z,926.97
2017-03-16T03:07:51.753Z,927
2017-03-16T03:08:11.041Z,927.02
2017-03-16T03:08:30.349Z,926.98
2017-03-16T03:08:49.646Z,927.02
2017-03-16T03:09:08.968Z,927.01
2017-03-16T03:09:28.246Z,926.99
2017-03-16T03:09:47.027Z,926.98
2017-03-16T03:10:06.330Z,927
2017-03-16T03:10:25.119Z,927
2017-03-16T03:10:44.410Z,927
2017-03-16T03:11:03.725Z,926.98
2017-03-16T03:11:22.518Z,927.01
2017-03-16T03:11:41.806Z,926.99
2017-03-16T03:12:01.498Z,927.05
2017-03-16T03:12:20.780Z,927.03
2017-03-16T03:12:39.567Z,927.03
2017-03-16T03:12:58.350Z,927
2017-03-16T03:13:17.643Z,927
2017-03-16T03:13:36.420Z,927.03
2017-03-16T03:13:55.200Z,926.99
2017-03-16T03:14:14.498Z,927.02
2017-03-16T03:14:33.815Z,926.95
2017-03-16T03:14:52.600Z,926.97
2017-03-16T03:15:12.112Z,927.01
2017-03-16T03:15:31.418Z,926.96
2017-03-16T03:15:50.199Z,926.98
2017-03-16T03:16:09.495Z,926.96
2017-03-16T03:16:28.786Z,926.95
2017-03-16T03:16:48.088Z,926.96
2017-03-16T03:17:07.359Z,926.93
2017-03-16T03:17:26.875Z,926.92
2017-03-16T03:17:45.641Z,926.95
2017-03-16T03:18:04.903Z,926.93
2017-03-16T03:18:24.191Z,926.93
2017-03-16T03:18:43.476Z,926.94
2017-03-16T03:19:02.766Z,926.97
2017-03-16T03:19:22.066Z,926.94
2017-03-16T03:19:40.880Z,926.93
2017-03-16T03:20:00.149Z,926.9
2017-03-16T03:20:18.923Z,926.92
2017-03-16T03:20:37.733Z,926.88
2017-03-16T03:20:57.025Z,926.88
2017-03-16T03:21:16.339Z,926.88
2017-03-16T03:21:34.604Z,926.87
2017-03-16T03:21:53.883Z,926.85
2017-03-16T03:22:13.346Z,926.88
2017-03-16T03:22:32.652Z,926.88
2017-03-16T03:22:51.456Z,926.87
2017-03-16T03:23:10.730Z,926.85
2017-03-16T03:23:29.488Z,926.85
2017-03-16T03:23:48.767Z,926.8
2017-03-16T03:24:08.056Z,926.85
2017-03-16T03:24:27.364Z,926.83
2017-03-16T03:24:46.676Z,926.85
2017-03-16T03:25:05.976Z,926.81
2017-03-16T03:25:25.275Z,926.76
2017-03-16T03:25:44.574Z,926.8
2017-03-16T03:26:03.849Z,926.81
2017-03-16T03:26:22.635Z,926.82
2017-03-16T03:26:41.415Z,926.79
2017-03-16T03:27:00.728Z,926.76
2017-03-16T03:27:20.138Z,926.81
2017-03-16T03:27:39.454Z,926.8
2017-03-16T03:27:58.237Z,926.81
2017-03-16T03:28:17.516Z,926.75
2017-03-16T03:28:36.286Z,926.77
2017-03-16T03:28:55.062Z,926.75
2017-03-16T03:29:14.352Z,926.78
2017-03-16T03:29:33.654Z,926.76
2017-03-16T03:29:52.916Z,926.78
2017-03-16T03:30:11.719Z,926.78
2017-03-16T03:30:31.015Z,926.75
2017-03-16T03:30:50.300Z,926.76
2017-03-16T03:31:09.083Z,926.73
2017-03-16T03:31:28.379Z,926.8
2017-03-16T03:31:47.666Z,926.74
2017-03-16T03:32:06.992Z,926.73
2017-03-16T03:32:26.306Z,926.75
2017-03-16T03:32:44.563Z,926.78
2017-03-16T03:33:03.357Z,926.78
2017-03-16T03:33:22.141Z,926.73
2017-03-16T03:33:40.430Z,926.71
2017-03-16T03:33:59.724Z,926.69
2017-03-16T03:34:19.102Z,926.65
2017-03-16T03:34:38.389Z,926.68
2017-03-16T03:34:57.173Z,926.71
2017-03-16T03:35:15.922Z,926.67
2017-03-16T03:35:34.687Z,926.68
2017-03-16T03:35:53.471Z,926.69
2017-03-16T03:36:12.230Z,926.71
2017-03-16T03:36:31.045Z,926.68
2017-03-16T03:36:50.374Z,926.7
2017-03-16T03:37:09.164Z,926.68
2017-03-16T03:37:28.454Z,926.68
2017-03-16T03:37:47.757Z,926.67
2017-03-16T03:38:06.545Z,926.71
2017-03-16T03:38:25.352Z,926.69
2017-03-16T03:38:44.643Z,926.69
2017-03-16T03:39:03.928Z,926.69
2017-03-16T03:39:22.694Z,926.69
2017-03-16T03:39:41.976Z,926.71
2017-03-16T03:40:01.288Z,926.67
2017-03-16T03:40:20.579Z,926.71
2017-03-16T03:40:39.902Z,926.69
2017-03-16T03:40:59.193Z,926.7
2017-03-16T03:41:18.455Z,926.68
2017-03-16T03:41:37.235Z,926.69
2017-03-16T03:41:56.558Z,926.7
2017-03-16T03:42:15.455Z,926.73
2017-03-16T03:42:34.759Z,926.69
2017-03-16T03:42:54.064Z,926.71
2017-03-16T03:43:13.346Z,926.73
2017-03-16T03:43:32.120Z,926.71
2017-03-16T03:43:51.413Z,926.71
2017-03-16T03:44:10.748Z,926.72
2017-03-16T03:44:30.028Z,926.7
2017-03-16T03:44:49.334Z,926.73
2017-03-16T03:45:08.115Z,926.73
2017-03-16T03:45:27.386Z,926.73
2017-03-16T03:45:46.136Z,926.74
2017-03-16T03:46:04.923Z,926.72
2017-03-16T03:46:23.697Z,926.75
2017-03-16T03:46:42.968Z,926.7
2017-03-16T03:47:02.276Z,926.72
2017-03-16T03:47:21.563Z,926.72
2017-03-16T03:47:40.875Z,926.71
2017-03-16T03:48:00.203Z,926.74
2017-03-16T03:48:18.990Z,926.74
2017-03-16T03:48:37.728Z,926.72
2017-03-16T03:48:56.540Z,926.74
2017-03-16T03:49:15.318Z,926.74
2017-03-16T03:49:34.143Z,926.72
2017-03-16T03:49:53.476Z,926.68
2017-03-16T03:50:12.244Z,926.69
2017-03-16T03:50:31.530Z,926.69
2017-03-16T03:50:50.810Z,926.75
2017-03-16T03:51:10.097Z,926.69
2017-03-16T03:51:29.403Z,926.67
2017-03-16T03:51:48.213Z,926.67
2017-03-16T03:52:07.482Z,926.68
2017-03-16T03:52:26.252Z,926.69
2017-03-16T03:52:45.036Z,926.7
2017-03-16T03:53:03.292Z,926.71
2017-03-16T03:53:22.583Z,926.67
2017-03-16T03:53:41.897Z,926.7
2017-03-16T03:54:00.675Z,926.69
2017-03-16T03:54:19.972Z,926.67
2017-03-16T03:54:39.290Z,926.7
2017-03-16T03:54:58.074Z,926.69
2017-03-16T03:55:17.365Z,926.69
2017-03-16T03:55:36.149Z,926.71
2017-03-16T03:55:55.439Z,926.69
2017-03-16T03:56:14.219Z,926.69
2017-03-16T03:56:32.991Z,926.68
2017-03-16T03:56:52.284Z,926.69
2017-03-16T03:57:11.592Z,926.68
2017-03-16T03:57:30.372Z,926.72
2017-03-16T03:57:49.653Z,926.69
2017-03-16T03:58:08.435Z,926.71
2017-03-16T03:58:27.753Z,926.67
2017-03-16T03:58:46.529Z,926.7
2017-03-16T03:59:05.864Z,926.7
2017-03-16T03:59:24.662Z,926.69